createdAt,value
2022-11-02T00:02:08.774Z,99.90
2022-11-02T00:04:54.366Z,99.90
2022-11-02T00:07:41.237Z,99.90
2022-11-02T00:10:27.062Z,99.90
2022-11-02T00:13:12.769Z,99.90
2022-11-02T00:16:02.380Z,99.90
2022-11-02T00:18:51.071Z,99.90
2022-11-02T00:21:37.710Z,99.90
2022-11-02T00:24:23.265Z,99.90
2022-11-02T00:27:09.019Z,99.90
2022-11-02T00:29:54.487Z,99.90
2022-11-02T00:32:40.079Z,99.90
2022-11-02T00:35:25.602Z,99.90
2022-11-02T00:38:11.057Z,99.90
2022-11-02T00:40:56.330Z,99.90
2022-11-02T00:43:41.726Z,99.90
2022-11-02T00:46:27.417Z,99.90
2022-11-02T00:49:12.937Z,99.90
2022-11-02T00:51:58.681Z,99.90
2022-11-02T00:54:46.865Z,99.90
2022-11-02T00:57:32.394Z,99.90
2022-11-02T01:00:18.049Z,99.90
2022-11-02T01:03:03.846Z,99.90
2022-11-02T01:05:50.378Z,99.90
2022-11-02T01:08:35.785Z,99.90
2022-11-02T01:11:23.952Z,99.90
2022-11-02T01:14:10.445Z,99.90
2022-11-02T01:16:57.843Z,99.90
2022-11-02T01:19:43.560Z,99.90
2022-11-02T01:22:29.229Z,99.90
2022-11-02T01:25:15.099Z,99.90
2022-11-02T01:28:00.861Z,99.90
2022-11-02T01:30:48.538Z,99.90
2022-11-02T01:33:34.641Z,99.90
2022-11-02T01:39:11.890Z,99.90
2022-11-02T01:41:57.551Z,99.90
2022-11-02T01:44:44.081Z,99.90
2022-11-02T01:47:38.060Z,99.90
2022-11-02T01:50:27.285Z,99.90
2022-11-02T01:53:12.935Z,99.90
2022-11-02T01:55:59.879Z,99.90
2022-11-02T01:58:51.640Z,99.90
2022-11-02T02:01:37.018Z,99.90
2022-11-02T02:04:23.677Z,99.90
2022-11-02T02:07:10.464Z,99.90
2022-11-02T02:09:56.156Z,99.90
2022-11-02T02:12:43.266Z,99.90
2022-11-02T02:15:53.154Z,99.90
2022-11-02T02:18:56.670Z,99.90
2022-11-02T02:22:17.223Z,99.90
2022-11-02T02:25:26.244Z,99.90
2022-11-02T02:28:41.219Z,99.90
2022-11-02T02:32:13.117Z,99.90
2022-11-02T02:35:23.411Z,99.90
2022-11-02T02:38:16.786Z,99.90
2022-11-02T02:41:30.942Z,99.90
2022-11-02T02:44:23.575Z,99.90
2022-11-02T02:47:17.454Z,99.90
2022-11-02T02:50:21.174Z,99.90
2022-11-02T02:53:08.011Z,99.90
2022-11-02T02:55:55.419Z,99.90
2022-11-02T02:59:02.824Z,99.90
2022-11-02T03:01:49.203Z,99.90
2022-11-02T03:04:34.733Z,99.90
2022-11-02T03:07:33.724Z,99.90
2022-11-02T03:11:10.355Z,99.90
2022-11-02T03:14:10.918Z,99.90
2022-11-02T03:17:20.639Z,99.90
2022-11-02T03:20:19.101Z,99.90
2022-11-02T03:23:19.400Z,99.90
2022-11-02T03:26:42.223Z,99.90
2022-11-02T03:30:09.931Z,99.90
2022-11-02T03:33:09.351Z,99.90
2022-11-02T03:35:58.215Z,99.90
2022-11-02T03:38:52.792Z,99.90
2022-11-02T03:41:42.067Z,99.90
2022-11-02T03:44:30.429Z,99.90
2022-11-02T03:47:17.846Z,99.90
2022-11-02T03:50:06.904Z,99.90
2022-11-02T03:53:05.489Z,99.90
2022-11-02T03:55:55.754Z,99.90
2022-11-02T03:58:41.470Z,99.90
2022-11-02T04:01:29.171Z,99.90
2022-11-02T04:04:15.921Z,99.90
2022-11-02T04:07:02.641Z,99.90
2022-11-02T04:09:48.055Z,99.90
2022-11-02T04:12:52.018Z,99.90
2022-11-02T04:15:37.528Z,99.90
2022-11-02T04:18:41.474Z,99.90
2022-11-02T04:21:27.804Z,99.90
2022-11-02T04:24:31.898Z,99.90
2022-11-02T04:27:20.951Z,99.90
2022-11-02T04:30:09.550Z,99.90
2022-11-02T04:33:13.968Z,99.90
2022-11-02T04:36:07.627Z,99.90
2022-11-02T04:38:54.382Z,99.90
2022-11-02T04:41:51.632Z,99.90
2022-11-02T04:44:48.403Z,99.90
2022-11-02T04:47:39.431Z,99.90
2022-11-02T04:50:25.595Z,99.90
2022-11-02T04:53:11.403Z,99.90
2022-11-02T04:55:58.425Z,99.90
2022-11-02T04:58:50.097Z,99.90
2022-11-02T05:01:36.727Z,99.90
2022-11-02T05:04:23.538Z,99.90
2022-11-02T05:07:11.003Z,99.90
2022-11-02T05:09:57.559Z,99.90
2022-11-02T05:12:43.889Z,99.90
2022-11-02T05:15:30.070Z,99.90
2022-11-02T05:18:19.039Z,99.90
2022-11-02T05:21:06.325Z,99.90
2022-11-02T05:23:51.943Z,99.90
2022-11-02T05:26:37.590Z,99.90
2022-11-02T05:29:23.748Z,99.90
2022-11-02T05:32:10.361Z,99.90
2022-11-02T05:34:57.167Z,99.90
2022-11-02T05:37:42.876Z,99.90
2022-11-02T05:40:28.443Z,99.90
2022-11-02T05:43:16.568Z,99.90
2022-11-02T05:46:03.591Z,99.90
2022-11-02T05:48:48.912Z,99.90
2022-11-02T05:51:34.611Z,99.90
2022-11-02T05:54:20.283Z,99.90
2022-11-02T05:57:05.995Z,99.90
2022-11-02T05:59:51.494Z,99.90
2022-11-02T06:02:37.013Z,99.90
2022-11-02T06:05:22.510Z,99.90
2022-11-02T06:08:08.559Z,99.90
2022-11-02T06:10:54.551Z,99.90
2022-11-02T06:13:41.137Z,99.90
2022-11-02T06:16:26.384Z,99.90
2022-11-02T06:19:12.093Z,99.90
2022-11-02T06:21:57.535Z,99.90
2022-11-02T06:24:43.018Z,99.90
2022-11-02T06:27:28.600Z,99.90
2022-11-02T06:30:14.070Z,99.90
2022-11-02T06:33:02.974Z,99.90
2022-11-02T06:35:53.133Z,99.90
2022-11-02T06:38:38.746Z,99.90
2022-11-02T06:41:24.503Z,99.90
2022-11-02T06:44:10.338Z,99.90
2022-11-02T06:46:55.767Z,99.90
2022-11-02T06:49:41.273Z,99.90
2022-11-02T06:52:27.887Z,99.90
2022-11-02T06:55:15.484Z,99.90
2022-11-02T06:58:00.589Z,99.90
2022-11-02T07:00:46.117Z,99.90
2022-11-02T07:03:31.707Z,99.90
2022-11-02T07:06:17.098Z,99.90
2022-11-02T07:09:02.630Z,99.90
2022-11-02T07:11:48.215Z,99.90
2022-11-02T07:14:33.739Z,99.90
2022-11-02T07:17:19.233Z,99.90
2022-11-02T07:20:05.529Z,99.90
2022-11-02T07:22:59.372Z,99.90
2022-11-02T07:25:45.120Z,99.90
2022-11-02T07:28:30.785Z,99.90
2022-11-02T07:31:16.342Z,99.90
2022-11-02T07:34:01.924Z,99.90
2022-11-02T07:36:47.412Z,99.90
2022-11-02T07:39:32.906Z,99.90
2022-11-02T07:42:18.274Z,99.90
2022-11-02T07:45:08.457Z,99.90
2022-11-02T07:47:54.077Z,99.90
2022-11-02T07:50:39.792Z,99.90
2022-11-02T07:53:25.880Z,99.90
2022-11-02T07:56:11.757Z,99.90
2022-11-02T07:58:57.312Z,99.90
2022-11-02T08:01:42.815Z,99.90
2022-11-02T08:04:28.711Z,99.90
2022-11-02T08:07:14.257Z,99.90
2022-11-02T08:09:59.846Z,99.90
2022-11-02T08:12:45.400Z,99.90
2022-11-02T08:15:31.453Z,99.90
2022-11-02T08:18:19.513Z,99.90
2022-11-02T08:21:05.416Z,99.90
2022-11-02T08:23:54.750Z,99.90
2022-11-02T08:26:45.370Z,99.90
2022-11-02T08:29:32.093Z,99.90
2022-11-02T08:32:17.894Z,99.90
2022-11-02T08:35:04.568Z,99.90
2022-11-02T08:37:56.795Z,99.90
2022-11-02T08:40:42.874Z,99.90
2022-11-02T08:43:28.708Z,99.90
2022-11-02T08:46:15.578Z,99.90
2022-11-02T08:49:02.396Z,99.90
2022-11-02T08:51:48.494Z,99.90
2022-11-02T08:54:34.727Z,99.90
2022-11-02T08:57:20.413Z,99.90
2022-11-02T09:00:07.106Z,99.90
2022-11-02T09:03:10.774Z,99.90
2022-11-02T09:06:01.186Z,99.90
2022-11-02T09:08:46.976Z,99.90
2022-11-02T09:11:32.388Z,99.90
2022-11-02T09:14:17.982Z,99.90
2022-11-02T09:17:03.605Z,99.90
2022-11-02T09:19:48.852Z,99.90
2022-11-02T09:22:34.340Z,99.90
2022-11-02T09:25:19.950Z,99.90
2022-11-02T09:28:06.730Z,99.90
2022-11-02T09:30:52.399Z,99.80
2022-11-02T09:33:37.887Z,99.60
2022-11-02T09:36:23.502Z,99.50
2022-11-02T09:39:09.487Z,98.70
2022-11-02T09:42:10.092Z,98.10
2022-11-02T09:45:06.724Z,97.90
2022-11-02T09:48:20.856Z,98.40
2022-11-02T09:51:16.107Z,98.60
2022-11-02T09:54:40.004Z,98.60
2022-11-02T09:57:33.653Z,97.40
2022-11-02T10:00:19.265Z,96.70
2022-11-02T10:03:26.167Z,96.40
2022-11-02T10:06:17.464Z,96.90
2022-11-02T10:09:47.785Z,97.60
2022-11-02T10:12:45.306Z,96.70
2022-11-02T10:15:45.025Z,95.50
2022-11-02T10:18:31.308Z,95.70
2022-11-02T10:21:21.856Z,95.70
2022-11-02T10:24:27.667Z,95.00
2022-11-02T10:27:23.598Z,95.10
2022-11-02T10:30:18.216Z,95.10
2022-11-02T10:33:13.457Z,95.60
2022-11-02T10:36:29.874Z,94.20
2022-11-02T10:39:36.034Z,94.60
2022-11-02T10:42:34.271Z,94.40
2022-11-02T10:45:44.874Z,94.40
2022-11-02T10:48:58.214Z,92.70
2022-11-02T10:51:44.196Z,92.00
2022-11-02T10:54:33.448Z,92.90
2022-11-02T10:57:24.552Z,93.10
2022-11-02T11:00:23.084Z,91.70
2022-11-02T11:03:19.439Z,91.40
2022-11-02T11:06:05.280Z,92.10
2022-11-02T11:08:53.491Z,91.20
2022-11-02T11:11:39.428Z,91.50
2022-11-02T11:20:44.564Z,88.00
2022-11-02T11:23:30.225Z,86.10
2022-11-02T11:26:31.329Z,86.00
2022-11-02T11:29:23.247Z,84.30
2022-11-02T11:32:24.599Z,80.80
2022-11-02T11:35:19.256Z,79.30
2022-11-02T11:38:27.308Z,76.60
2022-11-02T11:41:13.856Z,72.10
2022-11-02T11:44:01.353Z,70.80
2022-11-02T11:46:50.666Z,67.60
2022-11-02T11:50:07.317Z,66.10
2022-11-02T11:52:47.068Z,62.20
2022-11-02T11:55:32.593Z,55.50
2022-11-02T11:58:23.989Z,56.50
2022-11-02T12:01:12.922Z,50.40
2022-11-02T12:04:03.201Z,50.70
2022-11-02T12:07:08.174Z,45.40
2022-11-02T12:10:02.291Z,42.40
2022-11-02T12:13:06.003Z,40.90
2022-11-02T12:16:14.664Z,38.20
2022-11-02T12:19:27.270Z,39.20
2022-11-02T12:22:24.368Z,44.40
2022-11-02T12:25:27.617Z,43.00
2022-11-02T12:28:40.859Z,45.10
2022-11-02T12:31:46.253Z,43.00
2022-11-02T12:35:23.112Z,39.90
2022-11-02T12:38:24.930Z,37.60
2022-11-02T12:41:24.487Z,40.00
2022-11-02T12:44:18.302Z,40.50
2022-11-02T12:47:21.617Z,38.40
2022-11-02T12:50:13.212Z,40.20
2022-11-02T12:53:05.666Z,43.00
2022-11-02T12:55:56.089Z,43.10
2022-11-02T12:58:42.369Z,39.60
2022-11-02T13:01:32.137Z,41.10
2022-11-02T13:04:29.602Z,40.00
2022-11-02T13:07:22.330Z,38.50
2022-11-02T13:10:20.455Z,38.70
2022-11-02T13:13:14.822Z,37.90
2022-11-02T13:16:01.343Z,38.20
2022-11-02T13:18:55.071Z,37.70
2022-11-02T13:21:45.087Z,38.90
2022-11-02T13:24:38.039Z,38.80
2022-11-02T13:27:40.913Z,39.10
2022-11-02T13:30:26.689Z,40.00
2022-11-02T13:33:23.658Z,39.30
2022-11-02T13:36:10.441Z,40.00
2022-11-02T13:39:10.554Z,39.20
2022-11-02T13:42:37.646Z,39.10
2022-11-02T13:49:15.994Z,39.60
2022-11-02T13:52:05.086Z,39.30
2022-11-02T13:54:53.709Z,40.80
2022-11-02T13:57:48.834Z,42.20
2022-11-02T14:00:45.069Z,42.50
2022-11-02T14:03:45.896Z,44.00
2022-11-02T14:06:34.515Z,43.60
2022-11-02T14:09:39.895Z,45.20
2022-11-02T14:12:27.253Z,44.90
2022-11-02T14:15:15.462Z,45.90
2022-11-02T14:18:13.714Z,44.80
2022-11-02T14:21:19.732Z,44.80
2022-11-02T14:24:34.516Z,44.40
2022-11-02T14:27:21.354Z,45.30
2022-11-02T14:30:39.688Z,44.70
2022-11-02T14:33:47.304Z,44.20
2022-11-02T14:36:55.326Z,45.60
2022-11-02T14:40:03.012Z,48.80
2022-11-02T14:43:39.292Z,50.30
2022-11-02T14:46:39.406Z,52.20
2022-11-02T14:49:31.451Z,52.70
2022-11-02T14:52:20.033Z,54.50
2022-11-02T14:55:25.551Z,57.20
2022-11-02T14:58:20.274Z,54.30
2022-11-02T15:01:12.854Z,56.60
2022-11-02T15:03:58.527Z,56.70
2022-11-02T15:06:52.693Z,56.20
2022-11-02T15:10:16.500Z,57.30
2022-11-02T15:13:19.964Z,57.90
2022-11-02T15:16:11.427Z,60.70
2022-11-02T15:19:35.431Z,62.00
2022-11-02T15:22:50.590Z,61.70
2022-11-02T15:25:57.774Z,61.30
2022-11-02T15:28:45.665Z,63.10
2022-11-02T15:31:33.971Z,64.50
2022-11-02T15:34:20.764Z,64.90
2022-11-02T15:37:07.108Z,65.40
2022-11-02T15:40:04.849Z,66.40
2022-11-02T15:43:34.490Z,66.80
2022-11-02T15:46:39.998Z,69.30
2022-11-02T15:50:03.651Z,69.80
2022-11-02T15:53:26.757Z,69.70
2022-11-02T15:56:27.711Z,70.80
2022-11-02T15:59:46.245Z,71.60
2022-11-02T16:02:42.771Z,72.10
2022-11-02T16:05:33.545Z,73.20
2022-11-02T16:08:35.147Z,73.40
2022-11-02T16:11:20.561Z,74.80
2022-11-02T16:14:17.116Z,76.10
2022-11-02T16:17:02.606Z,77.20
2022-11-02T16:19:49.229Z,77.90
2022-11-02T16:22:35.818Z,78.30
2022-11-02T16:25:40.243Z,79.00
2022-11-02T16:28:30.532Z,79.40
2022-11-02T16:31:21.957Z,80.80
2022-11-02T16:34:26.639Z,81.40
2022-11-02T16:37:14.774Z,81.60
2022-11-02T16:40:00.359Z,82.40
2022-11-02T16:42:52.917Z,83.20
2022-11-02T16:45:43.301Z,84.90
2022-11-02T16:48:32.853Z,85.40
2022-11-02T16:51:19.319Z,85.40
2022-11-02T16:54:27.034Z,85.70
2022-11-02T16:57:12.676Z,87.30
2022-11-02T17:00:05.116Z,88.20
2022-11-02T17:02:50.442Z,87.90
2022-11-02T17:05:41.939Z,89.30
2022-11-02T17:08:33.054Z,90.10
2022-11-02T17:11:19.054Z,90.10
2022-11-02T17:14:04.897Z,90.50
2022-11-02T17:17:05.352Z,90.40
2022-11-02T17:19:56.629Z,90.70
2022-11-02T17:22:53.028Z,90.90
2022-11-02T17:25:40.366Z,91.30
2022-11-02T17:28:35.253Z,91.50
2022-11-02T17:31:29.030Z,91.90
2022-11-02T17:34:19.001Z,92.70
2022-11-02T17:37:06.064Z,92.20
2022-11-02T17:39:52.178Z,92.30
2022-11-02T17:42:56.064Z,92.40
2022-11-02T17:45:41.747Z,92.40
2022-11-02T17:48:31.166Z,92.80
2022-11-02T17:51:20.108Z,93.40
2022-11-02T17:54:05.708Z,93.40
2022-11-02T17:56:51.416Z,93.50
2022-11-02T17:59:36.854Z,93.40
2022-11-02T18:02:22.468Z,93.60
2022-11-02T18:05:23.733Z,93.60
2022-11-02T18:08:10.290Z,93.70
2022-11-02T18:10:56.001Z,94.30
2022-11-02T18:13:41.707Z,94.60
2022-11-02T18:16:27.646Z,94.40
2022-11-02T18:19:13.287Z,94.60
2022-11-02T18:22:01.628Z,95.10
2022-11-02T18:24:47.476Z,95.40
2022-11-02T18:27:33.287Z,95.30
2022-11-02T18:30:19.331Z,95.40
2022-11-02T18:33:06.554Z,95.50
2022-11-02T18:36:05.438Z,95.50
2022-11-02T18:38:51.117Z,95.20
2022-11-02T18:41:37.569Z,95.30
2022-11-02T18:44:23.229Z,95.60
2022-11-02T18:47:09.052Z,95.90
2022-11-02T18:49:54.748Z,95.80
2022-11-02T18:52:41.895Z,96.10
2022-11-02T18:55:27.342Z,96.50
2022-11-02T18:58:12.726Z,96.80
2022-11-02T19:01:12.423Z,97.10
2022-11-02T19:03:59.690Z,97.30
2022-11-02T19:07:03.823Z,97.70
2022-11-02T19:09:49.243Z,98.40
2022-11-02T19:12:34.795Z,98.60
2022-11-02T19:15:20.429Z,98.40
2022-11-02T19:18:06.002Z,98.00
2022-11-02T19:20:51.333Z,98.30
2022-11-02T19:23:36.959Z,98.10
2022-11-02T19:26:22.622Z,98.50
2022-11-02T19:29:08.238Z,99.20
2022-11-02T19:31:53.809Z,99.10
2022-11-02T19:34:40.681Z,98.90
2022-11-02T19:37:30.430Z,99.90
2022-11-02T19:40:18.846Z,99.90
2022-11-02T19:43:04.728Z,99.90
2022-11-02T19:45:50.322Z,99.90
2022-11-02T19:48:36.190Z,99.90
2022-11-02T19:51:23.516Z,99.90
2022-11-02T19:54:09.482Z,99.90
2022-11-02T19:56:55.211Z,99.90
2022-11-02T19:59:41.238Z,99.50
2022-11-02T20:02:26.728Z,99.90
2022-11-02T20:05:14.534Z,99.90
2022-11-02T20:08:00.113Z,99.90
2022-11-02T20:10:45.784Z,99.90
2022-11-02T20:13:36.393Z,99.90
2022-11-02T20:16:22.076Z,99.90
2022-11-02T20:19:08.934Z,99.90
2022-11-02T20:21:54.348Z,99.90
2022-11-02T20:24:39.849Z,99.90
2022-11-02T20:27:25.399Z,99.90
2022-11-02T20:30:11.987Z,99.90
2022-11-02T20:32:57.401Z,99.90
2022-11-02T20:35:44.539Z,99.90
2022-11-02T20:38:30.413Z,99.90
2022-11-02T20:41:18.897Z,99.90
2022-11-02T20:44:04.595Z,99.90
2022-11-02T20:46:53.242Z,99.90
2022-11-02T20:49:54.687Z,99.90
2022-11-02T20:52:40.656Z,99.90
2022-11-02T20:55:26.152Z,99.90
2022-11-02T20:58:11.567Z,99.90
2022-11-02T21:00:57.561Z,99.90
2022-11-02T21:03:43.212Z,99.90
2022-11-02T21:06:29.038Z,99.90
2022-11-02T21:09:14.428Z,99.90
2022-11-02T21:12:18.243Z,99.90
2022-11-02T21:15:04.226Z,99.90
2022-11-02T21:17:49.610Z,99.90
2022-11-02T21:20:35.174Z,99.90
2022-11-02T21:23:21.023Z,99.90
2022-11-02T21:26:09.175Z,99.90
2022-11-02T21:28:54.627Z,99.90
2022-11-02T21:31:40.131Z,99.90
2022-11-02T21:34:25.727Z,99.90
2022-11-02T21:37:11.357Z,99.90
2022-11-02T21:39:57.155Z,99.90
2022-11-02T21:42:42.642Z,99.90
2022-11-02T21:45:29.425Z,99.90
2022-11-02T21:48:17.892Z,99.90
2022-11-02T21:51:08.253Z,99.90
2022-11-02T21:53:53.446Z,99.90
2022-11-02T21:56:38.871Z,99.90
2022-11-02T21:59:24.522Z,99.90
2022-11-02T22:02:11.895Z,99.90
2022-11-02T22:04:57.756Z,99.90
2022-11-02T22:08:03.273Z,99.90
2022-11-02T22:10:48.949Z,99.90
2022-11-02T22:13:35.292Z,99.90
2022-11-02T22:16:27.827Z,99.90
2022-11-02T22:19:15.152Z,99.90
2022-11-02T22:22:01.288Z,99.90
2022-11-02T22:24:47.653Z,99.90
2022-11-02T22:27:33.203Z,99.90
2022-11-02T22:30:18.657Z,99.90
2022-11-02T22:33:05.764Z,99.90
2022-11-02T22:35:52.177Z,99.90
2022-11-02T22:38:56.072Z,99.90
2022-11-02T22:41:43.154Z,99.90
2022-11-02T22:44:28.802Z,99.90
2022-11-02T22:47:14.139Z,99.90
2022-11-02T22:49:59.875Z,99.90
2022-11-02T22:52:45.299Z,99.90
2022-11-02T22:55:31.577Z,99.90
2022-11-02T22:58:17.151Z,99.90
2022-11-02T23:01:03.483Z,99.90
2022-11-02T23:03:49.405Z,99.90
2022-11-02T23:06:38.731Z,99.90
2022-11-02T23:09:24.171Z,99.90
2022-11-02T23:12:09.794Z,99.90
2022-11-02T23:14:55.166Z,99.90
2022-11-02T23:17:40.863Z,99.90
2022-11-02T23:20:26.547Z,99.90
2022-11-02T23:23:30.620Z,99.90
2022-11-02T23:26:16.132Z,99.90
2022-11-02T23:29:19.885Z,99.90
2022-11-02T23:32:24.345Z,99.90
2022-11-02T23:35:28.682Z,99.90
2022-11-02T23:38:14.157Z,99.90
2022-11-02T23:40:59.703Z,99.90
2022-11-02T23:43:45.847Z,99.90
2022-11-02T23:46:31.155Z,99.90
2022-11-02T23:49:17.670Z,99.90
2022-11-02T23:52:21.341Z,99.90
2022-11-02T23:55:35.906Z,99.90
2022-11-02T23:58:21.053Z,99.90
